sensor_id;sensor_type;location;lat;lon;timestamp;pressure;altitude;pressure_sealevel;temperature
75431;BMP280;64127;51.488;5.462;2023-03-31T00:01:22;100193.16;;;14.17
75431;BMP280;64127;51.488;5.462;2023-03-31T00:03:56;100154.16;;;13.97
75431;BMP280;64127;51.488;5.462;2023-03-31T00:06:38;100184.31;;;14.14
75431;BMP280;64127;51.488;5.462;2023-03-31T00:09:16;100175.44;;;14.09
75431;BMP280;64127;51.488;5.462;2023-03-31T00:11:53;100159.66;;;14.12
75431;BMP280;64127;51.488;5.462;2023-03-31T00:14:26;100057.88;;;13.60
75431;BMP280;64127;51.488;5.462;2023-03-31T00:16:58;100150.88;;;14.11
75431;BMP280;64127;51.488;5.462;2023-03-31T00:19:33;100147.41;;;14.14
75431;BMP280;64127;51.488;5.462;2023-03-31T00:22:05;100133.25;;;14.07
75431;BMP280;64127;51.488;5.462;2023-03-31T00:24:37;100124.47;;;14.07
75431;BMP280;64127;51.488;5.462;2023-03-31T00:27:09;100122.72;;;14.09
75431;BMP280;64127;51.488;5.462;2023-03-31T00:29:42;100080.28;;;13.91
75431;BMP280;64127;51.488;5.462;2023-03-31T00:32:14;100106.94;;;14.12
75431;BMP280;64127;51.488;5.462;2023-03-31T00:34:49;100026.41;;;13.67
75431;BMP280;64127;51.488;5.462;2023-03-31T00:37:21;99936.19;;;13.20
75431;BMP280;64127;51.488;5.462;2023-03-31T00:39:53;100053.94;;;13.89
75431;BMP280;64127;51.488;5.462;2023-03-31T00:42:25;100083.28;;;14.13
75431;BMP280;64127;51.488;5.462;2023-03-31T00:48:15;100071.50;;;13.89
75431;BMP280;64127;51.488;5.462;2023-03-31T00:50:56;100088.28;;;13.95
75431;BMP280;64127;51.488;5.462;2023-03-31T00:53:32;100075.13;;;13.97
75431;BMP280;64127;51.488;5.462;2023-03-31T00:56:12;100077.72;;;13.94
75431;BMP280;64127;51.488;5.462;2023-03-31T00:58:44;99993.63;;;13.47
75431;BMP280;64127;51.488;5.462;2023-03-31T01:01:21;100074.19;;;13.93
75431;BMP280;64127;51.488;5.462;2023-03-31T01:03:57;100028.28;;;13.76
75431;BMP280;64127;51.488;5.462;2023-03-31T01:06:31;100063.63;;;13.92
75431;BMP280;64127;51.488;5.462;2023-03-31T01:09:03;100045.09;;;13.86
75431;BMP280;64127;51.488;5.462;2023-03-31T01:11:38;99956.59;;;13.35
75431;BMP280;64127;51.488;5.462;2023-03-31T01:14:11;100047.00;;;13.97
75431;BMP280;64127;51.488;5.462;2023-03-31T01:16:44;99979.72;;;13.57
75431;BMP280;64127;51.488;5.462;2023-03-31T01:22:45;100033.78;;;13.93
75431;BMP280;64127;51.488;5.462;2023-03-31T01:29:36;100017.84;;;13.84
75431;BMP280;64127;51.488;5.462;2023-03-31T01:39:10;100014.25;;;13.76
75431;BMP280;64127;51.488;5.462;2023-03-31T01:42:06;100008.94;;;13.73
75431;BMP280;64127;51.488;5.462;2023-03-31T01:45:37;100000.06;;;13.66
75431;BMP280;64127;51.488;5.462;2023-03-31T01:48:19;99956.72;;;13.44
75431;BMP280;64127;51.488;5.462;2023-03-31T01:51:02;99954.19;;;13.49
75431;BMP280;64127;51.488;5.462;2023-03-31T01:54:27;99978.84;;;13.57
75431;BMP280;64127;51.488;5.462;2023-03-31T01:57:15;99932.94;;;13.37
75431;BMP280;64127;51.488;5.462;2023-03-31T02:02:47;99945.59;;;13.63
75431;BMP280;64127;51.488;5.462;2023-03-31T02:05:31;99945.59;;;13.63
75431;BMP280;64127;51.488;5.462;2023-03-31T02:08:13;99908.53;;;13.50
75431;BMP280;64127;51.488;5.462;2023-03-31T02:10:49;99919.25;;;13.63
75431;BMP280;64127;51.488;5.462;2023-03-31T02:13:28;99911.47;;;13.69
75431;BMP280;64127;51.488;5.462;2023-03-31T02:16:08;99887.66;;;13.62
75431;BMP280;64127;51.488;5.462;2023-03-31T02:18:45;99876.28;;;13.64
75431;BMP280;64127;51.488;5.462;2023-03-31T02:21:21;99837.50;;;13.51
75431;BMP280;64127;51.488;5.462;2023-03-31T02:23:57;99809.28;;;13.40
75431;BMP280;64127;51.488;5.462;2023-03-31T02:26:44;99830.53;;;13.56
75431;BMP280;64127;51.488;5.462;2023-03-31T02:29:19;99786.50;;;13.43
75431;BMP280;64127;51.488;5.462;2023-03-31T02:32:34;99850.06;;;13.75
75431;BMP280;64127;51.488;5.462;2023-03-31T02:35:14;99808.59;;;13.57
75431;BMP280;64127;51.488;5.462;2023-03-31T02:37:48;99807.78;;;13.61
75431;BMP280;64127;51.488;5.462;2023-03-31T02:40:24;99812.38;;;13.79
75431;BMP280;64127;51.488;5.462;2023-03-31T02:42:58;99805.38;;;13.80
75431;BMP280;64127;51.488;5.462;2023-03-31T02:45:49;99758.50;;;13.48
75431;BMP280;64127;51.488;5.462;2023-03-31T02:48:27;99801.78;;;13.75
75431;BMP280;64127;51.488;5.462;2023-03-31T03:11:12;99721.81;;;13.66
75431;BMP280;64127;51.488;5.462;2023-03-31T03:14:28;99720.84;;;13.55
75431;BMP280;64127;51.488;5.462;2023-03-31T03:17:10;99668.91;;;13.39
75431;BMP280;64127;51.488;5.462;2023-03-31T03:19:53;99687.47;;;13.51
75431;BMP280;64127;51.488;5.462;2023-03-31T03:22:26;99653.09;;;13.35
75431;BMP280;64127;51.488;5.462;2023-03-31T03:24:58;99729.00;;;13.80
75431;BMP280;64127;51.488;5.462;2023-03-31T03:27:31;99695.47;;;13.66
75431;BMP280;64127;51.488;5.462;2023-03-31T03:30:09;99654.03;;;13.43
75431;BMP280;64127;51.488;5.462;2023-03-31T03:32:42;99649.63;;;13.40
75431;BMP280;64127;51.488;5.462;2023-03-31T03:35:14;99721.94;;;13.76
75431;BMP280;64127;51.488;5.462;2023-03-31T03:37:46;99695.59;;;13.76
75431;BMP280;64127;51.488;5.462;2023-03-31T03:40:18;99626.75;;;13.32
75431;BMP280;64127;51.488;5.462;2023-03-31T03:42:50;99677.91;;;13.62
75431;BMP280;64127;51.488;5.462;2023-03-31T03:45:22;99685.91;;;13.73
75431;BMP280;64127;51.488;5.462;2023-03-31T03:47:55;99671.78;;;13.65
75431;BMP280;64127;51.488;5.462;2023-03-31T03:50:27;99674.47;;;13.69
75431;BMP280;64127;51.488;5.462;2023-03-31T03:52:59;99658.63;;;13.66
75431;BMP280;64127;51.488;5.462;2023-03-31T03:55:31;99633.91;;;13.49
75431;BMP280;64127;51.488;5.462;2023-03-31T03:58:03;99647.19;;;13.61
75431;BMP280;64127;51.488;5.462;2023-03-31T04:00:36;99644.56;;;13.61
75431;BMP280;64127;51.488;5.462;2023-03-31T04:03:08;99639.28;;;13.61
75431;BMP280;64127;51.488;5.462;2023-03-31T04:05:40;99626.97;;;13.57
75431;BMP280;64127;51.488;5.462;2023-03-31T04:08:12;99578.50;;;13.36
75431;BMP280;64127;51.488;5.462;2023-03-31T04:10:46;99582.94;;;13.38
75431;BMP280;64127;51.488;5.462;2023-03-31T04:13:23;99621.69;;;13.56
75431;BMP280;64127;51.488;5.462;2023-03-31T04:15:55;99612.94;;;13.60
75431;BMP280;64127;51.488;5.462;2023-03-31T04:18:27;99585.69;;;13.53
75431;BMP280;64127;51.488;5.462;2023-03-31T04:20:59;99581.38;;;13.61
75431;BMP280;64127;51.488;5.462;2023-03-31T04:23:43;99572.59;;;13.59
75431;BMP280;64127;51.488;5.462;2023-03-31T04:26:18;99577.06;;;13.71
75431;BMP280;64127;51.488;5.462;2023-03-31T04:28:57;99559.53;;;13.73
75431;BMP280;64127;51.488;5.462;2023-03-31T04:31:31;99550.75;;;13.74
75431;BMP280;64127;51.488;5.462;2023-03-31T04:34:04;99548.03;;;13.66
75431;BMP280;64127;51.488;5.462;2023-03-31T04:36:42;99528.72;;;13.58
75431;BMP280;64127;51.488;5.462;2023-03-31T04:39:19;99519.00;;;13.53
75431;BMP280;64127;51.488;5.462;2023-03-31T04:41:59;99530.50;;;13.67
75431;BMP280;64127;51.488;5.462;2023-03-31T04:44:31;99494.44;;;13.51
75431;BMP280;64127;51.488;5.462;2023-03-31T04:47:03;99500.63;;;13.60
75431;BMP280;64127;51.488;5.462;2023-03-31T04:49:37;99500.66;;;13.65
75431;BMP280;64127;51.488;5.462;2023-03-31T04:52:09;99497.16;;;13.67
75431;BMP280;64127;51.488;5.462;2023-03-31T04:54:41;99459.28;;;13.44
75431;BMP280;64127;51.488;5.462;2023-03-31T04:57:14;99490.97;;;13.58
75431;BMP280;64127;51.488;5.462;2023-03-31T04:59:46;99335.13;;;12.68
75431;BMP280;64127;51.488;5.462;2023-03-31T05:02:18;99461.00;;;13.39
75431;BMP280;64127;51.488;5.462;2023-03-31T05:04:56;99474.22;;;13.45
75431;BMP280;64127;51.488;5.462;2023-03-31T05:07:28;99491.78;;;13.49
75431;BMP280;64127;51.488;5.462;2023-03-31T05:10:00;99490.91;;;13.49
75431;BMP280;64127;51.488;5.462;2023-03-31T05:12:37;99473.25;;;13.34
75431;BMP280;64127;51.488;5.462;2023-03-31T05:15:09;99466.25;;;13.35
75431;BMP280;64127;51.488;5.462;2023-03-31T05:17:42;99435.41;;;13.11
75431;BMP280;64127;51.488;5.462;2023-03-31T05:20:14;99452.16;;;13.25
75431;BMP280;64127;51.488;5.462;2023-03-31T05:22:46;99372.94;;;12.84
75431;BMP280;64127;51.488;5.462;2023-03-31T05:25:18;99431.09;;;13.24
75431;BMP280;64127;51.488;5.462;2023-03-31T05:27:51;99434.56;;;13.16
75431;BMP280;64127;51.488;5.462;2023-03-31T05:30:25;99396.75;;;13.04
75431;BMP280;64127;51.488;5.462;2023-03-31T05:32:57;99393.19;;;13.02
75431;BMP280;64127;51.488;5.462;2023-03-31T05:35:30;99423.16;;;13.19
75431;BMP280;64127;51.488;5.462;2023-03-31T05:38:02;99401.19;;;13.09
75431;BMP280;64127;51.488;5.462;2023-03-31T05:40:34;99426.72;;;13.24
75431;BMP280;64127;51.488;5.462;2023-03-31T05:43:06;99424.94;;;13.23
75431;BMP280;64127;51.488;5.462;2023-03-31T05:45:38;99409.13;;;13.17
75431;BMP280;64127;51.488;5.462;2023-03-31T05:48:10;99421.47;;;13.24
75431;BMP280;64127;51.488;5.462;2023-03-31T05:50:42;99425.91;;;13.34
75431;BMP280;64127;51.488;5.462;2023-03-31T05:53:14;99388.94;;;13.11
75431;BMP280;64127;51.488;5.462;2023-03-31T05:55:46;99381.06;;;13.16
75431;BMP280;64127;51.488;5.462;2023-03-31T05:58:18;99415.34;;;13.30
75431;BMP280;64127;51.488;5.462;2023-03-31T06:01:25;99388.91;;;13.10
75431;BMP280;64127;51.488;5.462;2023-03-31T06:03:57;99404.78;;;13.24
75431;BMP280;64127;51.488;5.462;2023-03-31T06:06:30;99385.50;;;13.25
75431;BMP280;64127;51.488;5.462;2023-03-31T06:09:05;99400.44;;;13.30
75431;BMP280;64127;51.488;5.462;2023-03-31T06:11:38;99200.00;;;12.30
75431;BMP280;64127;51.488;5.462;2023-03-31T06:14:10;99361.00;;;13.32
75431;BMP280;64127;51.488;5.462;2023-03-31T06:16:42;99382.03;;;13.32
75431;BMP280;64127;51.488;5.462;2023-03-31T06:19:14;99343.38;;;13.17
75431;BMP280;64127;51.488;5.462;2023-03-31T06:21:47;99363.56;;;13.21
75431;BMP280;64127;51.488;5.462;2023-03-31T06:24:19;99360.03;;;13.19
75431;BMP280;64127;51.488;5.462;2023-03-31T06:26:51;99351.28;;;13.23
75431;BMP280;64127;51.488;5.462;2023-03-31T06:29:25;99214.91;;;12.37
75431;BMP280;64127;51.488;5.462;2023-03-31T06:31:58;99263.31;;;12.73
75431;BMP280;64127;51.488;5.462;2023-03-31T06:34:30;99344.25;;;13.22
75431;BMP280;64127;51.488;5.462;2023-03-31T06:37:07;99259.84;;;12.77
75431;BMP280;64127;51.488;5.462;2023-03-31T06:39:39;99344.25;;;13.19
75431;BMP280;64127;51.488;5.462;2023-03-31T06:42:11;99335.50;;;13.20
75431;BMP280;64127;51.488;5.462;2023-03-31T06:44:43;99328.41;;;13.10
75431;BMP280;64127;51.488;5.462;2023-03-31T06:47:16;99334.56;;;13.12
75431;BMP280;64127;51.488;5.462;2023-03-31T06:49:48;99338.94;;;13.10
75431;BMP280;64127;51.488;5.462;2023-03-31T06:52:20;99268.50;;;12.62
75431;BMP280;64127;51.488;5.462;2023-03-31T06:54:52;99297.56;;;12.86
75431;BMP280;64127;51.488;5.462;2023-03-31T06:57:26;99184.13;;;12.13
75431;BMP280;64127;51.488;5.462;2023-03-31T06:59:59;99272.97;;;12.74
75431;BMP280;64127;51.488;5.462;2023-03-31T07:02:31;99169.25;;;12.14
75431;BMP280;64127;51.488;5.462;2023-03-31T07:05:04;99264.13;;;12.64
75431;BMP280;64127;51.488;5.462;2023-03-31T07:07:37;99254.50;;;12.67
75431;BMP280;64127;51.488;5.462;2023-03-31T07:10:09;99159.59;;;12.10
75431;BMP280;64127;51.488;5.462;2023-03-31T07:12:42;99169.22;;;12.11
75431;BMP280;64127;51.488;5.462;2023-03-31T07:15:15;99336.22;;;13.01
75431;BMP280;64127;51.488;5.462;2023-03-31T07:17:47;99328.44;;;13.13
75431;BMP280;64127;51.488;5.462;2023-03-31T07:20:21;99333.69;;;13.11
75431;BMP280;64127;51.488;5.462;2023-03-31T07:22:53;99321.44;;;13.13
75431;BMP280;64127;51.488;5.462;2023-03-31T07:25:26;99338.97;;;13.14
75431;BMP280;64127;51.488;5.462;2023-03-31T07:27:58;99282.72;;;12.94
75431;BMP280;64127;51.488;5.462;2023-03-31T07:30:31;99306.44;;;13.03
75431;BMP280;64127;51.488;5.462;2023-03-31T07:33:04;99266.84;;;12.78
75431;BMP280;64127;51.488;5.462;2023-03-31T07:35:39;99258.91;;;12.68
75431;BMP280;64127;51.488;5.462;2023-03-31T07:38:12;99323.06;;;12.98
75431;BMP280;64127;51.488;5.462;2023-03-31T07:40:47;99322.16;;;12.96
75431;BMP280;64127;51.488;5.462;2023-03-31T07:43:36;99226.31;;;12.41
75431;BMP280;64127;51.488;5.462;2023-03-31T07:46:19;99284.41;;;12.83
75431;BMP280;64127;51.488;5.462;2023-03-31T07:48:56;99145.56;;;12.05
75431;BMP280;64127;51.488;5.462;2023-03-31T07:51:29;99234.38;;;12.66
75431;BMP280;64127;51.488;5.462;2023-03-31T07:54:01;99287.16;;;13.03
75431;BMP280;64127;51.488;5.462;2023-03-31T07:56:33;99303.91;;;13.17
75431;BMP280;64127;51.488;5.462;2023-03-31T07:59:05;99295.16;;;13.21
75431;BMP280;64127;51.488;5.462;2023-03-31T08:01:38;99245.94;;;12.99
75431;BMP280;64127;51.488;5.462;2023-03-31T08:04:13;99245.16;;;13.10
75431;BMP280;64127;51.488;5.462;2023-03-31T08:06:46;99232.81;;;13.06
75431;BMP280;64127;51.488;5.462;2023-03-31T08:09:18;99262.75;;;13.31
75431;BMP280;64127;51.488;5.462;2023-03-31T08:11:53;99291.78;;;13.52
75431;BMP280;64127;51.488;5.462;2023-03-31T08:14:27;99289.16;;;13.61
75431;BMP280;64127;51.488;5.462;2023-03-31T08:17:12;99290.03;;;13.66
75431;BMP280;64127;51.488;5.462;2023-03-31T08:19:44;99248.78;;;13.46
75431;BMP280;64127;51.488;5.462;2023-03-31T08:22:16;99206.63;;;13.34
75431;BMP280;64127;51.488;5.462;2023-03-31T08:24:49;99282.22;;;13.83
75431;BMP280;64127;51.488;5.462;2023-03-31T08:27:23;99252.34;;;13.77
75431;BMP280;64127;51.488;5.462;2023-03-31T08:29:57;99271.66;;;13.88
75431;BMP280;64127;51.488;5.462;2023-03-31T08:32:31;99271.69;;;13.95
75431;BMP280;64127;51.488;5.462;2023-03-31T08:35:09;99263.75;;;13.91
75431;BMP280;64127;51.488;5.462;2023-03-31T08:37:43;99246.22;;;13.87
75431;BMP280;64127;51.488;5.462;2023-03-31T08:40:23;99239.19;;;13.86
75431;BMP280;64127;51.488;5.462;2023-03-31T08:43:07;99279.59;;;14.06
75431;BMP280;64127;51.488;5.462;2023-03-31T08:45:46;99197.91;;;13.57
75431;BMP280;64127;51.488;5.462;2023-03-31T08:48:30;99265.53;;;13.95
75431;BMP280;64127;51.488;5.462;2023-03-31T08:51:19;99237.44;;;13.73
75431;BMP280;64127;51.488;5.462;2023-03-31T08:56:29;99160.16;;;13.28
75431;BMP280;64127;51.488;5.462;2023-03-31T08:59:06;99255.00;;;13.92
75431;BMP280;64127;51.488;5.462;2023-03-31T09:08:59;99276.09;;;14.16
75431;BMP280;64127;51.488;5.462;2023-03-31T09:11:37;99204.09;;;13.73
75431;BMP280;64127;51.488;5.462;2023-03-31T09:14:37;99197.94;;;13.83
75431;BMP280;64127;51.488;5.462;2023-03-31T09:17:25;99258.50;;;14.29
75431;BMP280;64127;51.488;5.462;2023-03-31T09:20:31;99262.91;;;14.33
75431;BMP280;64127;51.488;5.462;2023-03-31T09:25:50;99140.00;;;13.79
75431;BMP280;64127;51.488;5.462;2023-03-31T09:28:39;99233.94;;;14.43
75431;BMP280;64127;51.488;5.462;2023-03-31T09:31:18;99222.50;;;14.29
75431;BMP280;64127;51.488;5.462;2023-03-31T09:34:00;99208.47;;;14.24
75431;BMP280;64127;51.488;5.462;2023-03-31T09:36:41;99237.47;;;14.48
75431;BMP280;64127;51.488;5.462;2023-03-31T09:39:14;99228.66;;;14.52
75431;BMP280;64127;51.488;5.462;2023-03-31T09:41:52;99226.03;;;14.54
75431;BMP280;64127;51.488;5.462;2023-03-31T09:44:38;99226.88;;;14.68
75431;BMP280;64127;51.488;5.462;2023-03-31T09:47:31;99179.47;;;14.41
75431;BMP280;64127;51.488;5.462;2023-03-31T09:50:11;99232.97;;;14.85
75431;BMP280;64127;51.488;5.462;2023-03-31T09:52:51;99225.03;;;14.90
75431;BMP280;64127;51.488;5.462;2023-03-31T09:55:32;99218.88;;;14.91
75431;BMP280;64127;51.488;5.462;2023-03-31T09:58:14;99153.09;;;14.48
75431;BMP280;64127;51.488;5.462;2023-03-31T10:01:14;99179.41;;;14.66
75431;BMP280;64127;51.488;5.462;2023-03-31T10:03:53;99177.59;;;14.78
75431;BMP280;64127;51.488;5.462;2023-03-31T10:06:25;99175.81;;;14.86
75431;BMP280;64127;51.488;5.462;2023-03-31T10:09:03;99146.81;;;14.81
75431;BMP280;64127;51.488;5.462;2023-03-31T10:11:36;99174.00;;;15.00
75431;BMP280;64127;51.488;5.462;2023-03-31T10:14:15;99193.25;;;15.14
75431;BMP280;64127;51.488;5.462;2023-03-31T10:16:57;99176.69;;;14.92
75431;BMP280;64127;51.488;5.462;2023-03-31T10:19:34;99207.38;;;15.04
75431;BMP280;64127;51.488;5.462;2023-03-31T10:24:53;99205.66;;;14.97
75431;BMP280;64127;51.488;5.462;2023-03-31T10:27:30;99209.19;;;14.99
75431;BMP280;64127;51.488;5.462;2023-03-31T10:30:11;99196.84;;;15.04
75431;BMP280;64127;51.488;5.462;2023-03-31T10:32:44;99189.78;;;15.04
75431;BMP280;64127;51.488;5.462;2023-03-31T10:35:34;99193.31;;;15.06
75431;BMP280;64127;51.488;5.462;2023-03-31T10:38:36;99046.81;;;14.28
75431;BMP280;64127;51.488;5.462;2023-03-31T10:41:19;99202.09;;;15.04
75431;BMP280;64127;51.488;5.462;2023-03-31T10:44:03;99039.88;;;14.13
75431;BMP280;64127;51.488;5.462;2023-03-31T10:46:51;99183.69;;;14.95
75431;BMP280;64127;51.488;5.462;2023-03-31T10:49:27;99123.16;;;14.67
75431;BMP280;64127;51.488;5.462;2023-03-31T10:52:25;99183.69;;;14.96
75431;BMP280;64127;51.488;5.462;2023-03-31T10:55:00;99152.94;;;14.88
75431;BMP280;64127;51.488;5.462;2023-03-31T10:58:13;99180.13;;;15.06
75431;BMP280;64127;51.488;5.462;2023-03-31T11:13:21;99170.50;;;14.95
75431;BMP280;64127;51.488;5.462;2023-03-31T11:22:08;99153.88;;;14.78
75431;BMP280;64127;51.488;5.462;2023-03-31T11:31:01;99124.81;;;14.84
75431;BMP280;64127;51.488;5.462;2023-03-31T11:34:05;99111.66;;;14.82
75431;BMP280;64127;51.488;5.462;2023-03-31T11:43:16;99098.44;;;14.87
75431;BMP280;64127;51.488;5.462;2023-03-31T11:52:14;99117.66;;;15.10
75431;BMP280;64127;51.488;5.462;2023-03-31T11:55:00;99124.66;;;15.17
75431;BMP280;64127;51.488;5.462;2023-03-31T11:58:06;99096.53;;;15.07
75431;BMP280;64127;51.488;5.462;2023-03-31T12:00:59;99124.50;;;15.38
75431;BMP280;64127;51.488;5.462;2023-03-31T12:03:50;99101.56;;;15.48
75431;BMP280;64127;51.488;5.462;2023-03-31T12:06:34;99092.78;;;15.43
75431;BMP280;64127;51.488;5.462;2023-03-31T12:09:54;98966.72;;;14.65
75431;BMP280;64127;51.488;5.462;2023-03-31T12:12:45;98980.66;;;14.86
75431;BMP280;64127;51.488;5.462;2023-03-31T12:15:24;99066.34;;;15.47
75431;BMP280;64127;51.488;5.462;2023-03-31T12:18:17;99112.94;;;15.56
75431;BMP280;64127;51.488;5.462;2023-03-31T12:21:01;99086.59;;;15.47
75431;BMP280;64127;51.488;5.462;2023-03-31T12:23:42;99075.13;;;15.52
75431;BMP280;64127;51.488;5.462;2023-03-31T12:29:35;99084.66;;;15.68
75431;BMP280;64127;51.488;5.462;2023-03-31T12:32:17;99040.84;;;15.51
75431;BMP280;64127;51.488;5.462;2023-03-31T12:35:25;99030.25;;;15.52
75431;BMP280;64127;51.488;5.462;2023-03-31T12:41:03;99048.38;;;15.92
75431;BMP280;64127;51.488;5.462;2023-03-31T12:55:42;99009.72;;;15.82
75431;BMP280;64127;51.488;5.462;2023-03-31T13:01:23;99001.97;;;15.65
75431;BMP280;64127;51.488;5.462;2023-03-31T13:04:20;99020.44;;;15.66
75431;BMP280;64127;51.488;5.462;2023-03-31T13:06:56;99029.19;;;15.68
75431;BMP280;64127;51.488;5.462;2023-03-31T13:09:42;99025.75;;;15.63
75431;BMP280;64127;51.488;5.462;2023-03-31T13:12:24;98962.81;;;15.15
75431;BMP280;64127;51.488;5.462;2023-03-31T13:15:03;99051.38;;;15.54
75431;BMP280;64127;51.488;5.462;2023-03-31T13:17:36;98983.97;;;15.09
75431;BMP280;64127;51.488;5.462;2023-03-31T13:23:15;99033.91;;;15.32
75431;BMP280;64127;51.488;5.462;2023-03-31T13:25:51;99044.41;;;15.38
75431;BMP280;64127;51.488;5.462;2023-03-31T13:28:25;98996.16;;;15.20
75431;BMP280;64127;51.488;5.462;2023-03-31T13:31:17;99020.81;;;15.21
75431;BMP280;64127;51.488;5.462;2023-03-31T13:34:00;98963.00;;;14.92
75431;BMP280;64127;51.488;5.462;2023-03-31T13:39:34;98913.22;;;14.51
75431;BMP280;64127;51.488;5.462;2023-03-31T13:45:03;99044.59;;;15.19
75431;BMP280;64127;51.488;5.462;2023-03-31T14:05:39;99034.34;;;14.74
75431;BMP280;64127;51.488;5.462;2023-03-31T14:14:15;99028.25;;;14.61
75431;BMP280;64127;51.488;5.462;2023-03-31T14:16:54;99031.72;;;14.69
75431;BMP280;64127;51.488;5.462;2023-03-31T14:20:00;99015.94;;;14.63
75431;BMP280;64127;51.488;5.462;2023-03-31T14:26:01;99001.91;;;14.58
75431;BMP280;64127;51.488;5.462;2023-03-31T14:28:55;99011.56;;;14.61
75431;BMP280;64127;51.488;5.462;2023-03-31T14:31:48;99015.09;;;14.61
75431;BMP280;64127;51.488;5.462;2023-03-31T14:37:32;99003.66;;;14.56
75431;BMP280;64127;51.488;5.462;2023-03-31T14:40:12;98936.16;;;14.30
75431;BMP280;64127;51.488;5.462;2023-03-31T14:42:45;98907.28;;;14.10
75431;BMP280;64127;51.488;5.462;2023-03-31T14:45:29;98965.06;;;14.46
75431;BMP280;64127;51.488;5.462;2023-03-31T14:48:11;99005.41;;;14.60
75431;BMP280;64127;51.488;5.462;2023-03-31T14:50:48;98932.69;;;14.23
75431;BMP280;64127;51.488;5.462;2023-03-31T14:53:24;98956.25;;;14.50
75431;BMP280;64127;51.488;5.462;2023-03-31T14:56:13;98994.03;;;14.55
75431;BMP280;64127;51.488;5.462;2023-03-31T14:58:52;98950.19;;;14.36
75431;BMP280;64127;51.488;5.462;2023-03-31T15:01:31;98870.56;;;13.83
75431;BMP280;64127;51.488;5.462;2023-03-31T15:04:20;98996.66;;;14.55
75431;BMP280;64127;51.488;5.462;2023-03-31T15:07:06;99008.09;;;14.53
75431;BMP280;64127;51.488;5.462;2023-03-31T15:09:40;98995.81;;;14.52
75431;BMP280;64127;51.488;5.462;2023-03-31T15:12:17;98992.38;;;14.36
75431;BMP280;64127;51.488;5.462;2023-03-31T15:15:10;98968.69;;;14.24
75431;BMP280;64127;51.488;5.462;2023-03-31T15:17:46;98968.66;;;14.27
75431;BMP280;64127;51.488;5.462;2023-03-31T15:20:36;98968.66;;;14.30
75431;BMP280;64127;51.488;5.462;2023-03-31T15:23:26;98997.59;;;14.42
75431;BMP280;64127;51.488;5.462;2023-03-31T15:26:10;98975.69;;;14.25
75431;BMP280;64127;51.488;5.462;2023-03-31T15:29:04;98991.47;;;14.33
75431;BMP280;64127;51.488;5.462;2023-03-31T15:31:37;98995.00;;;14.36
75431;BMP280;64127;51.488;5.462;2023-03-31T15:34:31;98983.59;;;14.25
75431;BMP280;64127;51.488;5.462;2023-03-31T15:37:08;98983.63;;;14.23
75431;BMP280;64127;51.488;5.462;2023-03-31T15:39:47;98991.50;;;14.25
75431;BMP280;64127;51.488;5.462;2023-03-31T15:42:23;98887.31;;;13.65
75431;BMP280;64127;51.488;5.462;2023-03-31T15:51:04;98965.28;;;13.98
75431;BMP280;64127;51.488;5.462;2023-03-31T15:53:47;98989.81;;;14.09
75431;BMP280;64127;51.488;5.462;2023-03-31T15:56:36;98991.63;;;13.99
75431;BMP280;64127;51.488;5.462;2023-03-31T16:02:22;98999.53;;;13.92
75431;BMP280;64127;51.488;5.462;2023-03-31T16:04:58;98981.13;;;13.92
75431;BMP280;64127;51.488;5.462;2023-03-31T16:07:33;98944.31;;;13.72
75431;BMP280;64127;51.488;5.462;2023-03-31T16:10:18;98912.78;;;13.54
75431;BMP280;64127;51.488;5.462;2023-03-31T16:13:03;98975.81;;;13.95
75431;BMP280;64127;51.488;5.462;2023-03-31T16:15:45;98932.94;;;13.68
75431;BMP280;64127;51.488;5.462;2023-03-31T16:18:36;98939.06;;;13.77
75431;BMP280;64127;51.488;5.462;2023-03-31T16:21:10;98967.91;;;13.99
75431;BMP280;64127;51.488;5.462;2023-03-31T16:23:53;98949.53;;;13.89
75431;BMP280;64127;51.488;5.462;2023-03-31T16:26:27;98960.00;;;13.98
75431;BMP280;64127;51.488;5.462;2023-03-31T16:29:00;98960.00;;;13.98
75431;BMP280;64127;51.488;5.462;2023-03-31T16:31:38;98981.09;;;13.95
75431;BMP280;64127;51.488;5.462;2023-03-31T16:34:11;98980.25;;;13.90
75431;BMP280;64127;51.488;5.462;2023-03-31T16:36:46;98886.53;;;13.40
75431;BMP280;64127;51.488;5.462;2023-03-31T16:39:18;98936.41;;;13.70
75431;BMP280;64127;51.488;5.462;2023-03-31T16:41:51;98956.56;;;13.84
75431;BMP280;64127;51.488;5.462;2023-03-31T16:44:23;98931.19;;;13.66
75431;BMP280;64127;51.488;5.462;2023-03-31T16:46:56;98955.69;;;13.82
75431;BMP280;64127;51.488;5.462;2023-03-31T16:49:28;98960.94;;;13.86
75431;BMP280;64127;51.488;5.462;2023-03-31T16:52:00;98944.28;;;13.86
75431;BMP280;64127;51.488;5.462;2023-03-31T16:54:44;98941.69;;;13.77
75431;BMP280;64127;51.488;5.462;2023-03-31T16:57:16;98958.31;;;13.86
75431;BMP280;64127;51.488;5.462;2023-03-31T16:59:49;98974.13;;;13.86
75431;BMP280;64127;51.488;5.462;2023-03-31T17:02:21;98970.63;;;13.83
75431;BMP280;64127;51.488;5.462;2023-03-31T17:04:53;98953.97;;;13.76
75431;BMP280;64127;51.488;5.462;2023-03-31T17:07:37;98958.38;;;13.69
75431;BMP280;64127;51.488;5.462;2023-03-31T17:10:09;98964.50;;;13.70
75431;BMP280;64127;51.488;5.462;2023-03-31T17:12:41;98965.38;;;13.67
75431;BMP280;64127;51.488;5.462;2023-03-31T17:15:13;98977.72;;;13.62
75431;BMP280;64127;51.488;5.462;2023-03-31T17:17:46;98963.63;;;13.63
75431;BMP280;64127;51.488;5.462;2023-03-31T17:20:19;98965.41;;;13.66
75431;BMP280;64127;51.488;5.462;2023-03-31T17:22:51;98970.66;;;13.64
75431;BMP280;64127;51.488;5.462;2023-03-31T17:25:23;98964.53;;;13.62
75431;BMP280;64127;51.488;5.462;2023-03-31T17:27:56;98974.16;;;13.63
75431;BMP280;64127;51.488;5.462;2023-03-31T17:30:28;98962.78;;;13.57
75431;BMP280;64127;51.488;5.462;2023-03-31T17:33:00;98971.56;;;13.59
75431;BMP280;64127;51.488;5.462;2023-03-31T17:35:32;98962.78;;;13.60
75431;BMP280;64127;51.488;5.462;2023-03-31T17:38:04;98961.91;;;13.56
75431;BMP280;64127;51.488;5.462;2023-03-31T17:40:36;98967.16;;;13.56
75431;BMP280;64127;51.488;5.462;2023-03-31T17:43:08;98953.16;;;13.48
75431;BMP280;64127;51.488;5.462;2023-03-31T17:45:40;98963.69;;;13.44
75431;BMP280;64127;51.488;5.462;2023-03-31T17:48:12;98962.84;;;13.42
75431;BMP280;64127;51.488;5.462;2023-03-31T17:50:45;98954.94;;;13.39
75431;BMP280;64127;51.488;5.462;2023-03-31T17:53:17;98953.16;;;13.54